| time (UTC) | temp F | wind direction | speed knots | gust knots | rain 1hr in | rain 24hr in | rain mn in | humidity % | barometer mb |
| 20260510044632 | 72 | 156 | 6.1 | 11.3 | 0.00 | 0.02 | 0.02 | 80 | 1013.2 |
| 20260510044132 | 72 | 150 | 7.0 | 11.3 | 0.00 | 0.02 | 0.02 | 80 | 1013.2 |
| 20260510043632 | 72 | 160 | 6.1 | 8.7 | 0.00 | 0.02 | 0.02 | 80 | 1013.2 |
| 20260510043132 | 72 | 172 | 4.3 | 9.6 | 0.00 | 0.02 | 0.02 | 80 | 1013.1 |
| 20260510042632 | 72 | 155 | 6.1 | 9.6 | 0.00 | 0.02 | 0.02 | 79 | 1013.2 |
| 20260510042132 | 72 | 143 | 6.1 | 9.6 | 0.00 | 0.02 | 0.02 | 79 | 1013.2 |
| 20260510041632 | 72 | 150 | 4.3 | 9.6 | 0.00 | 0.02 | 0.02 | 79 | 1013.0 |
| 20260510041131 | 72 | 157 | 5.2 | 9.6 | 0.00 | 0.02 | 0.02 | 79 | 1013.3 |
| 20260510040632 | 72 | 159 | 6.1 | 9.6 | 0.00 | 0.02 | 0.02 | 78 | 1013.3 |
| 20260510040132 | 72 | 149 | 4.3 | 11.3 | 0.00 | 0.02 | 0.02 | 78 | 1013.2 |
| 20260510035632 | 72 | 158 | 4.3 | 11.3 | 0.00 | 0.02 | 0.02 | 77 | 1013.3 |
| 20260510035132 | 72 | 165 | 5.2 | 11.3 | 0.00 | 0.02 | 0.02 | 77 | 1013.3 |
| 20260510034632 | 72 | 145 | 5.2 | 9.6 | 0.00 | 0.02 | 0.02 | 77 | 1013.2 |
| 20260510034132 | 73 | 147 | 5.2 | 8.7 | 0.00 | 0.02 | 0.02 | 76 | 1013.3 |
| 20260510033853 | 73 | 164 | 3.5 | 8.7 | 0.00 | 0.02 | 0.02 | 75 | 1013.4 |
| 20260510033132 | 73 | 134 | 6.1 | 8.7 | 0.00 | 0.02 | 0.02 | 75 | 1013.2 |
| 20260510032632 | 73 | 139 | 5.2 | 7.8 | 0.00 | 0.02 | 0.02 | 75 | 1013.2 |
| 20260510031632 | 73 | 145 | 3.5 | 7.8 | 0.00 | 0.02 | 0.02 | 75 | 1013.1 |
| 20260510031131 | 73 | 124 | 4.3 | 7.8 | 0.00 | 0.02 | 0.02 | 75 | 1013.0 |
| 20260510030632 | 74 | 132 | 3.5 | 7.8 | 0.00 | 0.02 | 0.02 | 75 | 1013.1 |
| 20260510030132 | 74 | 125 | 4.3 | 7.8 | 0.00 | 0.02 | 0.02 | 75 | 1012.9 |
| 20260510025632 | 75 | 123 | 3.5 | 7.0 | 0.00 | 0.02 | 0.02 | 74 | 1012.9 |
| 20260510025131 | 75 | 111 | 4.3 | 8.7 | 0.00 | 0.02 | 0.02 | 74 | 1012.8 |
| 20260510024626 | 75 | 109 | 4.3 | 8.7 | 0.00 | 0.02 | 0.02 | 74 | 1012.6 |
| 20260510024119 | 75 | 90 | 4.3 | 7.0 | 0.00 | 0.02 | 0.02 | 74 | 1012.8 |
| 20260510023620 | 75 | 108 | 3.5 | 8.7 | 0.00 | 0.02 | 0.02 | 74 | 1012.5 |
| 20260510023119 | 75 | 140 | 5.2 | 8.7 | 0.00 | 0.02 | 0.02 | 74 | 1012.6 |
| 20260510022619 | 76 | 120 | 5.2 | 7.8 | 0.00 | 0.02 | 0.02 | 73 | 1012.5 |
| 20260510022119 | 76 | 124 | 4.3 | 8.7 | 0.00 | 0.02 | 0.02 | 73 | 1012.3 |
| 20260510021620 | 76 | 115 | 3.5 | 8.7 | 0.00 | 0.02 | 0.02 | 72 | 1012.2 |
| 20260510020619 | 76 | 120 | 5.2 | 8.7 | 0.00 | 0.02 | 0.02 | 71 | 1011.8 |
| 20260510020120 | 77 | 105 | 5.2 | 8.7 | 0.00 | 0.02 | 0.02 | 71 | 1011.9 |
| 20260510015620 | 77 | 107 | 5.2 | 8.7 | 0.00 | 0.02 | 0.02 | 70 | 1011.9 |
| 20260510015120 | 78 | 136 | 7.0 | 9.6 | 0.00 | 0.02 | 0.02 | 68 | 1012.1 |
| 20260510014620 | 78 | 114 | 6.1 | 11.3 | 0.00 | 0.02 | 0.02 | 67 | 1011.8 |
| 20260510014120 | 79 | 116 | 6.1 | 11.3 | 0.00 | 0.02 | 0.02 | 66 | 1011.6 |
| 20260510013608 | 80 | 101 | 5.2 | 14.8 | 0.00 | 0.02 | 0.02 | 64 | 1011.6 |
| 20260510013108 | 80 | 105 | 6.1 | 14.8 | 0.00 | 0.02 | 0.02 | 62 | 1011.4 |
| 20260510012608 | 81 | 102 | 3.5 | 8.7 | 0.00 | 0.02 | 0.02 | 59 | 1011.6 |
| 20260510012108 | 81 | 94 | 4.3 | 6.1 | 0.00 | 0.02 | 0.02 | 58 | 1011.4 |
| 20260510011108 | 82 | 69 | 3.5 | 6.1 | 0.00 | 0.02 | 0.02 | 57 | 1011.2 |
| 20260510010608 | 82 | 71 | 3.5 | 6.1 | 0.00 | 0.02 | 0.02 | 56 | 1011.3 |
| 20260510005608 | 84 | 70 | 2.6 | 6.1 | 0.00 | 0.02 | 0.02 | 52 | 1011.0 |
| 20260510004608 | 86 | 76 | 3.5 | 5.2 | 0.00 | 0.02 | 0.02 | 49 | 1011.0 |
| 20260510004107 | 89 | 71 | 2.6 | 5.2 | 0.00 | 0.02 | 0.02 | 46 | 1011.1 |
| 20260510003607 | 92 | 84 | 3.5 | 5.2 | 0.00 | 0.02 | 0.02 | 41 | 1011.1 |
| 20260510003328 | 95 | 101 | 1.7 | 2.6 | 0.00 | 0.02 | 0.02 | 39 | 1011.1 |
| 20260510002828 | 98 | 114 | 0.9 | 1.7 | 0.00 | 0.02 | 0.02 | 37 | 1011.1 |
| 20260510002107 | 101 | 114 | 0.9 | 1.7 | 0.00 | 0.02 | 0.02 | 39 | 1011.0 |
| 20260510001607 | 100 | 114 | 0.9 | 1.7 | 0.00 | 0.02 | 0.02 | 39 | 1011.1 |
| 20260510001107 | 99 | 114 | 0.0 | 1.7 | 0.00 | 0.02 | 0.02 | 39 | 1011.0 |
| 20260510000607 | 98 | 114 | 0.0 | 1.7 | 0.00 | 0.02 | 0.02 | 37 | 1011.1 |
| 20260510000108 | 98 | 114 | 0.0 | 1.7 | 0.00 | 0.02 | 0.02 | 39 | 1011.0 |
| 20260509235607 | 96 | 114 | 0.0 | 1.7 | 0.00 | 0.02 | 0.02 | 40 | 1011.0 |
| 20260509235108 | 95 | 114 | 0.0 | 1.7 | 0.00 | 0.02 | 0.02 | 39 | 1010.7 |
| 20260509234608 | 95 | 114 | 0.9 | 3.5 | 0.00 | 0.02 | 0.02 | 38 | 1011.1 |
| 20260509234108 | 94 | 114 | 1.7 | 3.5 | 0.00 | 0.02 | 0.02 | 38 | 1011.0 |
| 20260509233608 | 96 | 113 | 1.7 | 5.2 | 0.00 | 0.02 | 0.02 | 37 | 1011.1 |
| 20260509233337 | 98 | 135 | 1.7 | 5.2 | 0.00 | 0.02 | 0.02 | 34 | 1011.1 |
| 20260509232607 | 99 | 96 | 2.6 | 3.5 | 0.00 | 0.02 | 0.02 | 37 | 1010.8 |
| 20260509232108 | 100 | 83 | 0.9 | 3.5 | 0.00 | 0.02 | 0.02 | 33 | 1010.7 |
| 20260509231608 | 102 | 58 | 3.5 | 3.5 | 0.00 | 0.02 | 0.02 | 34 | 1010.8 |
| 20260509231107 | 101 | 22 | 0.9 | 5.2 | 0.00 | 0.02 | 0.02 | 35 | 1011.0 |
| 20260509230607 | 101 | 37 | 2.6 | 5.2 | 0.00 | 0.02 | 0.02 | 34 | 1011.0 |
| 20260509225607 | 102 | 338 | 0.0 | 3.5 | 0.00 | 0.02 | 0.02 | 33 | 1010.8 |
| 20260509225108 | 102 | 349 | 1.7 | 5.2 | 0.00 | 0.02 | 0.02 | 34 | 1011.1 |
| 20260509224608 | 102 | 310 | 0.0 | 5.2 | 0.00 | 0.02 | 0.02 | 34 | 1010.8 |
| 20260509224330 | 101 | 26 | 2.6 | 5.2 | 0.00 | 0.02 | 0.02 | 36 | 1011.1 |
| 20260509223607 | 103 | 43 | 1.7 | 5.2 | 0.00 | 0.02 | 0.02 | 35 | 1011.0 |
| 20260509223107 | 103 | 340 | 0.9 | 5.2 | 0.00 | 0.02 | 0.02 | 34 | 1011.1 |
| 20260509222607 | 102 | 16 | 1.7 | 7.0 | 0.00 | 0.02 | 0.02 | 36 | 1011.1 |
| 20260509222107 | 101 | 54 | 1.7 | 7.0 | 0.00 | 0.02 | 0.02 | 37 | 1011.2 |
| 20260509221556 | 99 | 347 | 1.7 | 6.1 | 0.00 | 0.02 | 0.02 | 38 | 1011.1 |
| 20260509221056 | 99 | 334 | 1.7 | 7.0 | 0.00 | 0.02 | 0.02 | 38 | 1011.2 |
| 20260509220815 | 100 | 326 | 3.5 | 7.8 | 0.00 | 0.02 | 0.02 | 37 | 1011.4 |
| 20260509220055 | 100 | 16 | 1.7 | 7.8 | 0.00 | 0.02 | 0.02 | 36 | 1011.3 |
| 20260509215555 | 98 | 7 | 3.5 | 7.0 | 0.00 | 0.02 | 0.02 | 39 | 1011.1 |
| 20260509215056 | 97 | 338 | 2.6 | 5.2 | 0.00 | 0.02 | 0.02 | 41 | 1011.1 |
| 20260509214556 | 96 | 298 | 1.7 | 6.1 | 0.00 | 0.02 | 0.02 | 41 | 1011.3 |
| 20260509214056 | 99 | 346 | 5.2 | 7.8 | 0.00 | 0.02 | 0.02 | 40 | 1011.5 |
| 20260509213556 | 99 | 327 | 4.3 | 7.8 | 0.00 | 0.02 | 0.02 | 36 | 1011.4 |
| 20260509213056 | 99 | 353 | 3.5 | 7.8 | 0.00 | 0.02 | 0.02 | 39 | 1011.3 |
| 20260509212556 | 99 | 292 | 1.7 | 7.8 | 0.00 | 0.02 | 0.02 | 39 | 1011.3 |
| 20260509212314 | 97 | 15 | 2.6 | 7.8 | 0.00 | 0.02 | 0.02 | 41 | 1011.5 |
| 20260509211555 | 96 | 329 | 2.6 | 7.8 | 0.00 | 0.02 | 0.02 | 41 | 1011.3 |
| 20260509211055 | 94 | 7 | 2.6 | 5.2 | 0.00 | 0.02 | 0.02 | 42 | 1011.4 |
| 20260509210555 | 91 | 321 | 1.7 | 7.8 | 0.00 | 0.02 | 0.02 | 46 | 1011.5 |
| 20260509210055 | 91 | 291 | 2.6 | 7.8 | 0.00 | 0.02 | 0.02 | 44 | 1011.6 |
| 20260509205555 | 92 | 265 | 2.6 | 6.1 | 0.00 | 0.02 | 0.02 | 43 | 1011.6 |
| 20260509205055 | 94 | 309 | 2.6 | 8.7 | 0.00 | 0.02 | 0.02 | 41 | 1011.8 |
| 20260509204555 | 94 | 267 | 2.6 | 8.7 | 0.00 | 0.02 | 0.02 | 45 | 1011.9 |
| 20260509204056 | 93 | 306 | 6.1 | 8.7 | 0.00 | 0.02 | 0.02 | 46 | 1012.1 |
| 20260509203556 | 93 | 324 | 3.5 | 7.8 | 0.00 | 0.02 | 0.02 | 42 | 1011.9 |
| 20260509203056 | 93 | 229 | 0.9 | 7.8 | 0.00 | 0.02 | 0.02 | 46 | 1012.0 |
| 20260509202817 | 91 | 349 | 3.5 | 5.2 | 0.00 | 0.02 | 0.02 | 46 | 1012.1 |
| 20260509202055 | 90 | 257 | 1.7 | 9.6 | 0.00 | 0.02 | 0.02 | 48 | 1012.2 |
| 20260509201555 | 91 | 206 | 5.2 | 9.6 | 0.00 | 0.02 | 0.02 | 46 | 1012.1 |
| 20260509201056 | 91 | 292 | 6.1 | 8.7 | 0.00 | 0.02 | 0.02 | 45 | 1012.2 |
| 20260509200556 | 91 | 275 | 4.3 | 8.7 | 0.00 | 0.02 | 0.02 | 49 | 1012.2 |
| 20260509200055 | 91 | 308 | 3.5 | 9.6 | 0.00 | 0.02 | 0.02 | 48 | 1012.4 |
| 20260509195556 | 90 | 138 | 1.7 | 9.6 | 0.00 | 0.02 | 0.02 | 50 | 1012.2 |
| 20260509195056 | 90 | 248 | 7.0 | 8.7 | 0.00 | 0.02 | 0.02 | 50 | 1012.5 |
| 20260509194556 | 89 | 245 | 6.1 | 12.2 | 0.00 | 0.02 | 0.02 | 52 | 1012.4 |
| 20260509194055 | 88 | 256 | 4.3 | 12.2 | 0.00 | 0.02 | 0.02 | 54 | 1012.6 |
| 20260509193555 | 87 | 273 | 2.6 | 7.0 | 0.00 | 0.02 | 0.02 | 53 | 1012.8 |
| 20260509193056 | 88 | 224 | 5.2 | 7.0 | 0.00 | 0.02 | 0.02 | 51 | 1012.9 |
| 20260509192556 | 90 | 245 | 1.7 | 7.0 | 0.00 | 0.02 | 0.02 | 48 | 1013.2 |
| 20260509192320 | 89 | 355 | 2.6 | 8.7 | 0.00 | 0.02 | 0.02 | 57 | 1013.3 |
| 20260509191555 | 88 | 240 | 3.5 | 11.3 | 0.00 | 0.02 | 0.02 | 53 | 1013.3 |
| 20260509191055 | 88 | 224 | 1.7 | 11.3 | 0.00 | 0.02 | 0.02 | 56 | 1013.4 |
| 20260509190555 | 86 | 191 | 4.3 | 8.7 | 0.00 | 0.02 | 0.02 | 56 | 1013.4 |
| 20260509190317 | 85 | 254 | 3.5 | 7.0 | 0.00 | 0.02 | 0.02 | 61 | 1013.5 |
| 20260509185555 | 84 | 235 | 4.3 | 11.3 | 0.00 | 0.02 | 0.02 | 59 | 1013.5 |
| 20260509185056 | 84 | 261 | 5.2 | 11.3 | 0.00 | 0.02 | 0.02 | 60 | 1013.5 |
| 20260509184055 | 86 | 208 | 3.5 | 6.1 | 0.00 | 0.02 | 0.02 | 57 | 1013.5 |
| 20260509183556 | 86 | 282 | 2.6 | 9.6 | 0.00 | 0.02 | 0.02 | 57 | 1013.6 |
| 20260509183055 | 86 | 335 | 4.3 | 9.6 | 0.00 | 0.02 | 0.02 | 56 | 1013.6 |
| 20260509182556 | 86 | 224 | 7.0 | 8.7 | 0.00 | 0.02 | 0.02 | 58 | 1013.7 |
| 20260509182056 | 85 | 177 | 6.1 | 9.6 | 0.00 | 0.02 | 0.02 | 59 | 1013.6 |
| 20260509181555 | 85 | 222 | 3.5 | 9.6 | 0.00 | 0.02 | 0.02 | 59 | 1013.9 |
| 20260509181320 | 85 | 184 | 7.0 | 13.0 | 0.00 | 0.02 | 0.02 | 60 | 1013.9 |
| 20260509180556 | 85 | 229 | 1.7 | 13.0 | 0.00 | 0.02 | 0.02 | 62 | 1014.0 |
| 20260509180055 | 84 | 218 | 4.3 | 11.3 | 0.00 | 0.02 | 0.02 | 67 | 1014.0 |
| 20260509175815 | 83 | 218 | 8.7 | 12.2 | 0.00 | 0.02 | 0.02 | 65 | 1013.9 |
| 20260509175056 | 84 | 218 | 3.5 | 13.9 | 0.00 | 0.02 | 0.02 | 67 | 1013.9 |
| 20260509174556 | 84 | 216 | 4.3 | 16.5 | 0.00 | 0.02 | 0.02 | 66 | 1013.8 |
| 20260509174043 | 84 | 193 | 7.8 | 16.5 | 0.00 | 0.02 | 0.02 | 65 | 1014.0 |
| 20260509173543 | 84 | 175 | 7.8 | 13.9 | 0.00 | 0.02 | 0.02 | 69 | 1013.9 |
| 20260509173043 | 84 | 250 | 10.4 | 13.9 | 0.00 | 0.02 | 0.02 | 67 | 1014.1 |
| 20260509172543 | 84 | 191 | 6.1 | 14.8 | 0.00 | 0.02 | 0.02 | 69 | 1014.1 |
| 20260509172044 | 83 | 212 | 7.0 | 14.8 | 0.00 | 0.02 | 0.02 | 68 | 1014.0 |
| 20260509171544 | 83 | 194 | 5.2 | 13.0 | 0.00 | 0.02 | 0.02 | 69 | 1014.1 |
| 20260509171043 | 83 | 232 | 4.3 | 13.0 | 0.00 | 0.02 | 0.02 | 69 | 1014.1 |
| 20260509170544 | 83 | 178 | 9.6 | 15.6 | 0.00 | 0.02 | 0.02 | 68 | 1014.1 |
| 20260509170044 | 83 | 169 | 8.7 | 15.6 | 0.00 | 0.02 | 0.02 | 69 | 1014.0 |
| 20260509165545 | 83 | 166 | 6.1 | 12.2 | 0.00 | 0.02 | 0.02 | 67 | 1014.2 |
| 20260509165044 | 83 | 177 | 7.8 | 12.2 | 0.00 | 0.02 | 0.02 | 68 | 1014.0 |
| 20260509164543 | 82 | 181 | 8.7 | 12.2 | 0.00 | 0.02 | 0.02 | 71 | 1014.1 |
| 20260509164312 | 82 | 161 | 5.2 | 13.9 | 0.00 | 0.02 | 0.02 | 71 | 1014.3 |
| 20260509163543 | 82 | 194 | 7.8 | 13.9 | 0.00 | 0.02 | 0.02 | 71 | 1014.2 |
| 20260509163043 | 82 | 200 | 7.8 | 14.8 | 0.00 | 0.02 | 0.02 | 70 | 1014.4 |
| 20260509162544 | 82 | 148 | 7.8 | 14.8 | 0.00 | 0.02 | 0.02 | 71 | 1014.5 |
| 20260509161544 | 81 | 166 | 5.2 | 13.0 | 0.00 | 0.02 | 0.02 | 73 | 1014.3 |
| 20260509161044 | 81 | 158 | 5.2 | 13.9 | 0.00 | 0.02 | 0.02 | 70 | 1014.3 |
| 20260509160543 | 81 | 196 | 4.3 | 13.9 | 0.00 | 0.02 | 0.02 | 73 | 1014.4 |
| 20260509160043 | 81 | 164 | 6.1 | 13.9 | 0.00 | 0.02 | 0.02 | 73 | 1014.4 |
| 20260509155543 | 81 | 198 | 7.0 | 12.2 | 0.00 | 0.02 | 0.02 | 72 | 1014.5 |
| 20260509155043 | 80 | 188 | 4.3 | 9.6 | 0.00 | 0.02 | 0.02 | 74 | 1014.3 |
| 20260509154544 | 80 | 185 | 5.2 | 8.7 | 0.00 | 0.02 | 0.02 | 74 | 1014.4 |
| 20260509154044 | 80 | 165 | 7.0 | 8.7 | 0.00 | 0.02 | 0.02 | 77 | 1014.3 |
| 20260509153544 | 79 | 151 | 5.2 | 9.6 | 0.00 | 0.02 | 0.02 | 78 | 1014.0 |
| 20260509153044 | 78 | 158 | 3.5 | 9.6 | 0.00 | 0.02 | 0.02 | 79 | 1013.9 |
| 20260509152543 | 78 | 175 | 5.2 | 8.7 | 0.00 | 0.02 | 0.02 | 80 | 1013.9 |
| 20260509151543 | 77 | 178 | 5.2 | 7.8 | 0.00 | 0.02 | 0.02 | 82 | 1013.6 |
| 20260509151304 | 76 | 138 | 4.3 | 7.8 | 0.00 | 0.02 | 0.02 | 83 | 1013.8 |
| 20260509150544 | 76 | 189 | 3.5 | 8.7 | 0.00 | 0.02 | 0.02 | 84 | 1013.9 |
| 20260509150044 | 75 | 159 | 1.7 | 9.6 | 0.00 | 0.02 | 0.02 | 87 | 1014.0 |
| 20260509145544 | 74 | 171 | 3.5 | 11.3 | 0.00 | 0.02 | 0.02 | 89 | 1013.9 |
| 20260509145305 | 73 | 181 | 3.5 | 12.2 | 0.00 | 0.02 | 0.02 | 91 | 1013.9 |
| 20260509144805 | 72 | 163 | 7.8 | 12.2 | 0.00 | 0.02 | 0.02 | 91 | 1013.9 |
| 20260509143543 | 71 | 148 | 1.7 | 13.9 | 0.00 | 0.02 | 0.02 | 93 | 1014.1 |
| 20260509143044 | 71 | 199 | 3.5 | 19.1 | 0.00 | 0.02 | 0.02 | 93 | 1013.4 |
| 20260509142543 | 71 | 149 | 7.0 | 19.1 | 0.00 | 0.02 | 0.02 | 94 | 1012.8 |
| 20260509142044 | 70 | 182 | 7.8 | 16.5 | 0.00 | 0.02 | 0.02 | 94 | 1012.5 |
| 20260509141544 | 70 | 172 | 7.8 | 16.5 | 0.00 | 0.02 | 0.02 | 94 | 1012.6 |
| 20260509141043 | 71 | 187 | 8.7 | 16.5 | 0.00 | 0.02 | 0.02 | 94 | 1012.8 |
| 20260509140809 | 71 | 166 | 8.7 | 13.0 | 0.00 | 0.02 | 0.02 | 93 | 1012.8 |
| 20260509140304 | 71 | 159 | 7.0 | 13.0 | 0.00 | 0.02 | 0.02 | 94 | 1012.5 |
| 20260509135544 | 71 | 197 | 7.0 | 11.3 | 0.00 | 0.02 | 0.02 | 96 | 1012.8 |
| 20260509134544 | 70 | 176 | 5.2 | 7.8 | 0.00 | 0.02 | 0.02 | 98 | 1013.1 |
| 20260509134044 | 70 | 162 | 5.2 | 6.1 | 0.00 | 0.02 | 0.02 | 99 | 1013.0 |
| 20260509133544 | 69 | 166 | 1.7 | 5.2 | 0.00 | 0.02 | 0.02 | 98 | 1013.2 |
| 20260509133044 | 68 | 165 | 0.9 | 6.1 | 0.00 | 0.02 | 0.02 | 98 | 1013.1 |
| 20260509132543 | 68 | 166 | 3.5 | 7.0 | 0.00 | 0.02 | 0.02 | 98 | 1013.1 |
| 20260509132043 | 68 | 147 | 4.3 | 7.0 | 0.00 | 0.02 | 0.02 | 98 | 1013.2 |
| 20260509131544 | 68 | 178 | 3.5 | 8.7 | 0.00 | 0.02 | 0.02 | 98 | 1013.4 |
| 20260509131043 | 68 | 164 | 2.6 | 8.7 | 0.00 | 0.02 | 0.02 | 98 | 1013.3 |
| 20260509130543 | 67 | 182 | 4.3 | 7.0 | 0.00 | 0.02 | 0.02 | 98 | 1013.4 |
| 20260509130044 | 67 | 236 | 0.9 | 7.0 | 0.00 | 0.02 | 0.02 | 98 | 1013.7 |
| 20260509125544 | 67 | 191 | 4.3 | 6.1 | 0.00 | 0.02 | 0.02 | 98 | 1013.8 |
| 20260509124543 | 67 | 214 | 3.5 | 7.0 | 0.00 | 0.02 | 0.02 | 99 | 1013.8 |
| 20260509124043 | 67 | 180 | 3.5 | 7.0 | 0.00 | 0.02 | 0.02 | 99 | 1013.5 |
| 20260509123543 | 66 | 195 | 3.5 | 6.1 | 0.00 | 0.02 | 0.02 | 98 | 1013.3 |
| 20260509123043 | 66 | 169 | 3.5 | 6.1 | 0.00 | 0.02 | 0.02 | 98 | 1013.2 |
| 20260509122801 | 66 | 166 | 3.5 | 6.1 | 0.00 | 0.02 | 0.02 | 98 | 1013.2 |
| 20260509122044 | 66 | 143 | 3.5 | 3.5 | 0.00 | 0.02 | 0.02 | 98 | 1013.5 |
| 20260509121544 | 66 | 355 | 0.9 | 1.7 | 0.00 | 0.02 | 0.02 | 98 | 1013.4 |
| 20260509121048 | 66 | 356 | 0.9 | 1.7 | 0.00 | 0.02 | 0.02 | 98 | 1013.4 |
| 20260509120544 | 66 | 356 | 0.0 | 1.7 | 0.01 | 0.02 | 0.02 | 98 | 1013.5 |
| 20260509115543 | 67 | 357 | 0.9 | 2.6 | 0.01 | 0.02 | 0.02 | 98 | 1013.9 |
| 20260509115043 | 67 | 355 | 0.9 | 7.8 | 0.01 | 0.02 | 0.02 | 98 | 1013.9 |
| 20260509114543 | 67 | 8 | 0.9 | 8.7 | 0.01 | 0.02 | 0.02 | 98 | 1014.1 |
| 20260509114044 | 67 | 22 | 5.2 | 8.7 | 0.01 | 0.02 | 0.02 | 98 | 1014.1 |
| 20260509113544 | 67 | 342 | 2.6 | 7.0 | 0.02 | 0.02 | 0.02 | 98 | 1014.1 |
| 20260509113044 | 67 | 11 | 2.6 | 5.2 | 0.02 | 0.02 | 0.02 | 98 | 1014.2 |
| 20260509112543 | 67 | 26 | 0.0 | 6.1 | 0.02 | 0.02 | 0.02 | 98 | 1014.0 |
| 20260509112044 | 67 | 20 | 2.6 | 8.7 | 0.02 | 0.02 | 0.02 | 98 | 1014.2 |
| 20260509111544 | 67 | 8 | 4.3 | 8.7 | 0.02 | 0.02 | 0.02 | 98 | 1014.2 |
| 20260509111044 | 67 | 21 | 5.2 | 9.6 | 0.02 | 0.02 | 0.02 | 98 | 1014.3 |
| 20260509110544 | 67 | 6 | 5.2 | 9.6 | 0.01 | 0.01 | 0.01 | 98 | 1014.5 |
| 20260509105544 | 67 | 344 | 5.2 | 13.0 | 0.01 | 0.01 | 0.01 | 98 | 1014.3 |
| 20260509105044 | 67 | 313 | 7.8 | 9.6 | 0.01 | 0.01 | 0.01 | 98 | 1014.5 |
| 20260509104544 | 67 | 346 | 3.5 | 12.2 | 0.01 | 0.01 | 0.01 | 98 | 1014.4 |
| 20260509104045 | 67 | 335 | 5.2 | 16.5 | 0.01 | 0.01 | 0.01 | 98 | 1014.7 |
| 20260509103544 | 67 | 358 | 5.2 | 16.5 | 0.00 | 0.00 | 0.00 | 98 | 1014.7 |
| 20260509103044 | 67 | 358 | 6.1 | 15.6 | 0.00 | 0.00 | 0.00 | 98 | 1014.7 |
| 20260509102544 | 67 | 344 | 6.1 | 15.6 | 0.00 | 0.00 | 0.00 | 98 | 1014.5 |
| 20260509102044 | 68 | 356 | 5.2 | 14.8 | 0.00 | 0.00 | 0.00 | 98 | 1014.5 |
| 20260509101544 | 68 | 7 | 6.1 | 14.8 | 0.00 | 0.00 | 0.00 | 98 | 1014.2 |
| 20260509101307 | 68 | 14 | 8.7 | 13.0 | 0.00 | 0.00 | 0.00 | 98 | 1014.1 |
| 20260509100543 | 68 | 335 | 2.6 | 7.8 | 0.00 | 0.00 | 0.00 | 98 | 1013.4 |
| 20260509100043 | 68 | 160 | 4.3 | 7.8 | 0.00 | 0.00 | 0.00 | 98 | 1012.8 |
| 20260509095544 | 68 | 139 | 3.5 | 6.1 | 0.00 | 0.00 | 0.00 | 98 | 1012.3 |
| 20260509095043 | 68 | 140 | 4.3 | 6.1 | 0.00 | 0.00 | 0.00 | 98 | 1012.3 |
| 20260509094543 | 68 | 144 | 1.7 | 3.5 | 0.00 | 0.00 | 0.00 | 98 | 1012.3 |
| 20260509094043 | 68 | 123 | 0.9 | 3.5 | 0.00 | 0.00 | 0.00 | 98 | 1012.8 |
| 20260509093544 | 68 | 120 | 1.7 | 5.2 | 0.00 | 0.00 | 0.00 | 98 | 1012.5 |
| 20260509093309 | 68 | 122 | 2.6 | 5.2 | 0.00 | 0.00 | 0.00 | 98 | 1012.3 |
| 20260509092544 | 68 | 138 | 1.7 | 2.6 | 0.00 | 0.00 | 0.00 | 98 | 1012.2 |
| 20260509092044 | 68 | 139 | 1.7 | 2.6 | 0.00 | 0.00 | 0.00 | 97 | 1012.1 |
| 20260509091805 | 68 | 132 | 0.9 | 2.6 | 0.00 | 0.00 | 0.00 | 97 | 1012.1 |
| 20260509091044 | 68 | 131 | 1.7 | 2.6 | 0.00 | 0.00 | 0.00 | 97 | 1012.2 |
| 20260509090543 | 68 | 131 | 0.0 | 2.6 | 0.00 | 0.00 | 0.00 | 97 | 1012.5 |
| 20260509090043 | 68 | 190 | 0.9 | 1.7 | 0.00 | 0.00 | 0.00 | 97 | 1012.4 |
| 20260509085543 | 68 | 190 | 0.0 | 1.7 | 0.00 | 0.00 | 0.00 | 97 | 1012.6 |
| 20260509085259 | 68 | 190 | 0.9 | 1.7 | 0.00 | 0.00 | 0.00 | 97 | 1012.6 |
| 20260509084544 | 68 | 190 | 0.9 | 1.7 | 0.00 | 0.00 | 0.00 | 97 | 1012.9 |
| 20260509084044 | 68 | 190 | 0.9 | 1.7 | 0.00 | 0.00 | 0.00 | 97 | 1013.1 |
| 20260509083043 | 68 | 191 | 0.0 | 0.9 | 0.00 | 0.00 | 0.00 | 97 | 1013.0 |
| 20260509082806 | 68 | 191 | 0.0 | 0.9 | 0.00 | 0.00 | 0.00 | 97 | 1013.0 |
| 20260509082044 | 68 | 191 | 0.0 | 0.9 | 0.00 | 0.00 | 0.00 | 97 | 1012.9 |
| 20260509081044 | 68 | 191 | 0.0 | 1.7 | 0.00 | 0.00 | 0.00 | 97 | 1013.0 |
| 20260509080544 | 68 | 191 | 0.0 | 1.7 | 0.00 | 0.00 | 0.00 | 97 | 1013.1 |
| 20260509080044 | 68 | 191 | 0.0 | 1.7 | 0.00 | 0.00 | 0.00 | 97 | 1012.9 |
| 20260509075544 | 68 | 191 | 0.9 | 0.9 | 0.00 | 0.00 | 0.00 | 97 | 1013.2 |
| 20260509075044 | 68 | 191 | 0.0 | 0.9 | 0.00 | 0.00 | 0.00 | 97 | 1013.2 |
| 20260509074544 | 68 | 191 | 0.0 | 0.9 | 0.00 | 0.00 | 0.00 | 97 | 1013.3 |
| 20260509074043 | 68 | 191 | 0.0 | 0.9 | 0.00 | 0.00 | 0.00 | 97 | 1013.3 |
| 20260509073544 | 68 | 191 | 0.0 | 0.9 | 0.00 | 0.00 | 0.00 | 97 | 1013.3 |
| 20260509073044 | 68 | 191 | 0.0 | 0.9 | 0.00 | 0.00 | 0.00 | 97 | 1013.2 |
| 20260509072544 | 68 | 191 | 0.0 | 2.6 | 0.00 | 0.00 | 0.00 | 97 | 1013.3 |
| 20260509072043 | 68 | 191 | 0.0 | 2.6 | 0.00 | 0.00 | 0.00 | 97 | 1013.0 |
| 20260509071544 | 68 | 191 | 0.9 | 5.2 | 0.00 | 0.00 | 0.00 | 97 | 1013.1 |
| 20260509071044 | 68 | 167 | 1.7 | 5.2 | 0.00 | 0.00 | 0.00 | 97 | 1013.1 |
| 20260509070803 | 68 | 183 | 3.5 | 6.1 | 0.00 | 0.00 | 0.00 | 97 | 1013.1 |
| 20260509070043 | 68 | 174 | 1.7 | 6.1 | 0.00 | 0.00 | 0.00 | 97 | 1013.1 |
| 20260509065544 | 68 | 180 | 1.7 | 5.2 | 0.00 | 0.00 | 0.00 | 97 | 1013.1 |
| 20260509065044 | 68 | 184 | 1.7 | 5.2 | 0.00 | 0.00 | 0.00 | 97 | 1012.9 |
| 20260509064544 | 68 | 200 | 2.6 | 7.0 | 0.00 | 0.00 | 0.00 | 97 | 1012.9 |
| 20260509064044 | 68 | 230 | 3.5 | 7.0 | 0.00 | 0.00 | 0.00 | 97 | 1013.0 |
| 20260509063544 | 68 | 223 | 3.5 | 7.0 | 0.00 | 0.00 | 0.00 | 97 | 1012.8 |
| 20260509063044 | 68 | 210 | 2.6 | 7.0 | 0.00 | 0.00 | 0.00 | 97 | 1012.6 |
| 20260509062544 | 68 | 217 | 2.6 | 7.0 | 0.00 | 0.00 | 0.00 | 97 | 1012.3 |
| 20260509062044 | 68 | 213 | 1.7 | 9.6 | 0.00 | 0.00 | 0.00 | 97 | 1012.6 |
| 20260509061545 | 68 | 189 | 5.2 | 9.6 | 0.00 | 0.00 | 0.00 | 97 | 1012.6 |
| 20260509061044 | 68 | 190 | 6.1 | 12.2 | 0.00 | 0.00 | 0.00 | 97 | 1012.4 |
| 20260509060544 | 68 | 139 | 5.2 | 14.8 | 0.00 | 0.00 | 0.00 | 97 | 1012.4 |
| 20260509060044 | 68 | 188 | 5.2 | 14.8 | 0.00 | 0.00 | 0.00 | 97 | 1012.8 |
| 20260509055544 | 67 | 187 | 9.6 | 13.9 | 0.00 | 0.00 | 0.00 | 97 | 1012.4 |
| 20260509055044 | 67 | 180 | 7.0 | 13.9 | 0.00 | 0.00 | 0.00 | 97 | 1012.5 |
| 20260509054544 | 67 | 184 | 7.8 | 13.9 | 0.00 | 0.00 | 0.00 | 97 | 1013.0 |
| 20260509054044 | 67 | 171 | 7.0 | 16.5 | 0.00 | 0.00 | 0.00 | 97 | 1012.6 |
| 20260509053044 | 67 | 171 | 8.7 | 14.8 | 0.00 | 0.00 | 0.00 | 97 | 1012.8 |
| 20260509052543 | 67 | 181 | 9.6 | 14.8 | 0.00 | 0.00 | 0.00 | 97 | 1012.9 |
| 20260509052043 | 67 | 162 | 8.7 | 14.8 | 0.00 | 0.00 | 0.00 | 97 | 1012.6 |
| 20260509051543 | 67 | 164 | 10.4 | 14.8 | 0.00 | 0.00 | 0.00 | 97 | 1012.9 |
| 20260509051043 | 67 | 174 | 7.0 | 13.0 | 0.00 | 0.00 | 0.00 | 98 | 1012.6 |
| 20260509050544 | 67 | 179 | 5.2 | 14.8 | 0.00 | 0.00 | 0.00 | 98 | 1012.9 |
| 20260509050043 | 67 | 178 | 8.7 | 14.8 | 0.00 | 0.00 | 0.00 | 98 | 1012.5 |
| 20260509045544 | 67 | 151 | 7.0 | 13.9 | 0.00 | 0.00 | 0.00 | 98 | 1012.8 |